KLQ weather

Kullorsuaq Heliport
Kullorsuaq, Greenland

Public forecast

Using degrees Celsius for public forecast. Weather courtesy of forecast.io.

METAR (pilot weather report)

Report is more than 6 hours old.

Closest report is Upernavik Airport, 108.9 nm (201.7 km) S. Retrieved 2014/07/24 10:50 UTC (5 years ago):

BGUK 241050Z 11002KT 0400 -DZ PRFG VV007 08/08 Q1015

TAF (pilot weather forecast)

Forecast is more than 6 hours old.

Closest forecast is Thule Air Base, 207.5 nm (384.4 km) NW. Retrieved 2019/04/22 17:03 UTC (7 hours ago):

TAF BGTL 221700Z 2217/2323 28009KT 9000 BLSN SCT010 QNH2971INS BECMG 2305/2306 VRB06KT 9999 NSW FEW025 QNH2970INS TEMPO 2306/2312 5000 BR BECMG 2315/2316 26006KT 9999 SCT050 BKN100 QNH2970INS WND 200V300 TXM12/2218Z TNM23/2306Z LAST NO AMDS AFT 2219 NEXT 2309